createdAt,value
2023-10-10T05:31:21.459Z,101055.56
2023-10-10T05:33:49.795Z,101054.72
2023-10-10T05:36:20.153Z,101068.25
2023-10-10T05:38:49.636Z,101058.91
2023-10-10T05:41:21.065Z,101064.75
2023-10-10T05:43:51.339Z,101055.91
2023-10-10T05:46:21.379Z,101059.91
2023-10-10T05:48:49.437Z,101059.06
2023-10-10T05:51:17.170Z,101069.59
2023-10-10T05:53:48.072Z,101064.41
2023-10-10T05:56:17.713Z,101064.78
2023-10-10T05:58:46.392Z,101066.78
2023-10-10T06:01:15.891Z,101072.13
2023-10-10T06:03:50.761Z,101071.28
2023-10-10T06:06:22.535Z,101075.47
2023-10-10T06:08:59.370Z,101070.44
2023-10-10T06:11:30.923Z,101083.16
2023-10-10T06:13:59.110Z,101080.47
2023-10-10T06:16:26.874Z,101087.50
2023-10-10T06:18:54.865Z,101083.16
2023-10-10T06:21:23.844Z,101083.97
2023-10-10T06:23:51.929Z,101092.34
2023-10-10T06:26:22.744Z,101083.81
2023-10-10T06:28:54.506Z,101084.97
2023-10-10T06:31:33.301Z,101089.84
2023-10-10T06:34:01.447Z,101089.50
2023-10-10T06:36:38.751Z,101082.31
2023-10-10T06:39:20.720Z,101084.78
2023-10-10T06:41:52.479Z,101089.66
2023-10-10T06:44:34.673Z,101087.94
2023-10-10T06:47:12.356Z,101090.13
2023-10-10T06:49:57.111Z,101098.31
2023-10-10T06:52:29.114Z,101099.50
2023-10-10T06:55:06.598Z,101107.38
2023-10-10T06:57:43.790Z,101105.56
2023-10-10T07:00:33.549Z,101102.03
2023-10-10T07:03:01.485Z,101095.88
2023-10-10T07:05:32.155Z,101104.22
2023-10-10T07:08:02.017Z,101108.56
2023-10-10T07:10:36.933Z,101100.53
2023-10-10T07:13:11.757Z,101096.19
2023-10-10T07:15:41.207Z,101100.84
2023-10-10T07:18:16.518Z,101101.53
2023-10-10T07:21:05.938Z,101103.91
2023-10-10T07:24:03.223Z,101105.38
2023-10-10T07:26:32.595Z,101111.91
2023-10-10T07:29:22.923Z,101107.56
2023-10-10T07:31:54.330Z,101112.91
2023-10-10T07:34:35.884Z,101112.56
2023-10-10T07:37:09.055Z,101107.56
2023-10-10T07:39:56.365Z,101105.88
2023-10-10T07:42:28.545Z,101111.03
2023-10-10T07:45:04.090Z,101118.19
2023-10-10T07:47:33.385Z,101117.16
2023-10-10T07:50:03.069Z,101105.63
2023-10-10T07:52:36.703Z,101109.13
2023-10-10T07:55:07.402Z,101110.09
2023-10-10T07:57:56.907Z,101102.03
2023-10-10T08:00:35.792Z,101095.44
2023-10-10T08:03:04.557Z,101093.19
2023-10-10T08:05:35.386Z,101093.13
2023-10-10T08:08:05.716Z,101089.78
2023-10-10T08:10:40.239Z,101087.94
2023-10-10T08:13:11.280Z,101087.09
2023-10-10T08:15:51.819Z,101082.72
2023-10-10T08:18:40.914Z,101093.03
2023-10-10T08:21:13.053Z,101093.19
2023-10-10T08:23:47.413Z,101099.16
2023-10-10T08:26:20.740Z,101104.22
2023-10-10T08:28:52.207Z,101092.78
2023-10-10T08:31:19.925Z,101095.31
2023-10-10T08:33:49.088Z,101094.72
2023-10-10T08:36:24.587Z,101089.97
2023-10-10T08:39:12.266Z,101089.72
2023-10-10T08:41:42.905Z,101086.59
2023-10-10T08:44:11.786Z,101093.38
2023-10-10T08:46:48.280Z,101092.75
2023-10-10T08:49:17.118Z,101093.47
2023-10-10T08:51:46.473Z,101095.69
2023-10-10T08:54:17.745Z,101097.25
2023-10-10T08:57:01.065Z,101097.72
2023-10-10T08:59:31.018Z,101101.00
2023-10-10T09:02:10.904Z,101096.03
2023-10-10T09:04:38.536Z,101095.41
2023-10-10T09:07:12.339Z,101098.09
2023-10-10T09:09:41.249Z,101095.91
2023-10-10T09:12:17.077Z,101100.16
2023-10-10T09:14:51.282Z,101095.53
2023-10-10T09:17:30.541Z,101096.50
2023-10-10T09:19:59.237Z,101095.59
2023-10-10T09:22:31.463Z,101095.19
2023-10-10T09:25:00.853Z,101102.03
2023-10-10T09:27:37.354Z,101096.66
2023-10-10T09:30:11.438Z,101098.88
2023-10-10T09:32:43.852Z,101101.44
2023-10-10T09:35:12.116Z,101105.25
2023-10-10T09:37:43.563Z,101094.50
2023-10-10T09:40:20.251Z,101093.13
2023-10-10T09:43:04.896Z,101097.09
2023-10-10T09:45:52.226Z,101089.41
2023-10-10T09:48:29.396Z,101092.94
2023-10-10T09:51:09.570Z,101084.56
2023-10-10T09:53:41.262Z,101084.53
2023-10-10T09:56:10.970Z,101093.38
2023-10-10T09:58:43.922Z,101085.91
2023-10-10T10:01:23.628Z,101089.81
2023-10-10T10:04:01.056Z,101088.97
2023-10-10T10:06:52.600Z,101087.75
2023-10-10T10:09:47.814Z,101086.13
2023-10-10T10:12:53.468Z,101075.41
2023-10-10T10:15:51.398Z,101071.91
2023-10-10T10:18:30.093Z,101070.91
2023-10-10T10:21:18.042Z,101069.72
2023-10-10T10:23:56.241Z,101074.72
2023-10-10T10:26:33.863Z,101084.69
2023-10-10T10:29:16.834Z,101075.59
2023-10-10T10:31:59.253Z,101070.63
2023-10-10T10:34:46.850Z,101068.63
2023-10-10T10:37:24.547Z,101068.66
2023-10-10T10:40:14.984Z,101064.94
2023-10-10T10:42:48.074Z,101056.63
2023-10-10T10:45:27.886Z,101059.53
2023-10-10T10:48:01.570Z,101062.88
2023-10-10T10:50:46.082Z,101056.44
2023-10-10T10:53:35.097Z,101058.50
2023-10-10T10:56:28.166Z,101052.06
2023-10-10T10:59:14.842Z,101055.19
2023-10-10T11:01:48.914Z,101057.06
2023-10-10T11:04:44.220Z,101057.25
2023-10-10T11:07:17.666Z,101052.50
2023-10-10T11:09:54.212Z,101052.09
2023-10-10T11:12:33.132Z,101042.09
2023-10-10T11:15:07.547Z,101041.69
2023-10-10T11:17:40.144Z,101033.28
2023-10-10T11:20:31.289Z,101033.47
2023-10-10T11:23:12.615Z,101036.88
2023-10-10T11:25:48.019Z,101030.50
2023-10-10T11:28:25.440Z,101031.88
2023-10-10T11:30:55.162Z,101022.38
2023-10-10T11:33:49.430Z,101020.78
2023-10-10T11:36:39.311Z,101022.22
2023-10-10T11:39:26.474Z,101018.06
2023-10-10T11:41:54.206Z,101020.63
2023-10-10T11:44:23.163Z,101020.41
2023-10-10T11:47:03.895Z,101013.97
2023-10-10T11:49:33.357Z,101015.63
2023-10-10T11:52:02.560Z,101008.19
2023-10-10T11:54:30.758Z,101003.22
2023-10-10T11:57:00.817Z,101001.56
2023-10-10T11:59:29.124Z,100998.66
2023-10-10T12:02:08.557Z,100998.88
2023-10-10T12:04:38.833Z,100993.59
2023-10-10T12:07:08.037Z,100989.50
2023-10-10T12:09:39.845Z,100985.28
2023-10-10T12:12:07.907Z,100984.69
2023-10-10T12:14:35.618Z,100981.56
2023-10-10T12:17:07.016Z,100975.50
2023-10-10T12:19:38.541Z,100973.63
2023-10-10T12:22:12.201Z,100970.31
2023-10-10T12:24:41.573Z,100974.44
2023-10-10T12:27:10.156Z,100974.06
2023-10-10T12:29:41.320Z,100966.81
2023-10-10T12:32:17.506Z,100972.19
2023-10-10T12:34:47.128Z,100963.97
2023-10-10T12:37:17.861Z,100963.88
2023-10-10T12:39:46.026Z,100962.63
2023-10-10T12:42:14.240Z,100958.13
2023-10-10T12:44:48.952Z,100955.25
2023-10-10T12:47:18.854Z,100943.75
2023-10-10T12:49:46.850Z,100947.41
2023-10-10T12:52:18.623Z,100946.66
2023-10-10T12:54:47.780Z,100945.00
2023-10-10T12:57:16.005Z,100942.69
2023-10-10T12:59:47.469Z,100935.03
2023-10-10T13:02:17.638Z,100946.00
2023-10-10T13:04:48.696Z,100937.44
2023-10-10T13:07:19.268Z,100935.09
2023-10-10T13:09:47.945Z,100927.81
2023-10-10T13:12:33.769Z,100930.72
2023-10-10T13:15:19.028Z,100927.06
2023-10-10T13:17:54.874Z,100926.94
2023-10-10T13:20:23.646Z,100924.75
2023-10-10T13:22:52.851Z,100920.97
2023-10-10T13:25:23.202Z,100922.81
2023-10-10T13:27:53.541Z,100917.75
2023-10-10T13:30:21.841Z,100911.22
2023-10-10T13:32:49.903Z,100910.41
2023-10-10T13:35:21.032Z,100911.09
2023-10-10T13:37:48.925Z,100914.69
2023-10-10T13:40:23.983Z,100911.19
2023-10-10T13:42:51.962Z,100910.97
2023-10-10T13:45:23.660Z,100910.13
2023-10-10T13:47:51.929Z,100909.16
2023-10-10T13:50:32.611Z,100905.03
2023-10-10T13:53:01.461Z,100899.16
2023-10-10T13:55:35.232Z,100903.31
2023-10-10T13:58:03.136Z,100896.13
2023-10-10T14:00:34.633Z,100896.94
2023-10-10T14:03:05.416Z,100899.22
2023-10-10T14:05:35.801Z,100891.81
2023-10-10T14:08:07.412Z,100889.00
2023-10-10T14:10:43.026Z,100893.69
2023-10-10T14:13:27.759Z,100892.03
2023-10-10T14:15:59.130Z,100897.34
2023-10-10T14:18:31.168Z,100898.66
2023-10-10T14:21:02.586Z,100893.69
2023-10-10T14:23:36.743Z,100890.97
2023-10-10T14:26:13.952Z,100880.41
2023-10-10T14:28:42.999Z,100877.00
2023-10-10T14:31:13.619Z,100881.69
2023-10-10T14:33:41.504Z,100876.19
2023-10-10T14:36:13.405Z,100882.53
2023-10-10T14:38:45.821Z,100881.31
2023-10-10T14:41:19.503Z,100886.72
2023-10-10T14:43:49.272Z,100885.41
2023-10-10T14:46:22.584Z,100881.34
2023-10-10T14:48:51.268Z,100890.56
2023-10-10T14:51:19.865Z,100885.41
2023-10-10T14:53:53.117Z,100885.44
2023-10-10T14:56:35.356Z,100885.28
2023-10-10T14:59:05.057Z,100887.22
2023-10-10T15:01:35.561Z,100892.69
2023-10-10T15:04:05.643Z,100886.63
2023-10-10T15:06:34.369Z,100885.63
2023-10-10T15:09:02.026Z,100887.97
2023-10-10T15:11:31.348Z,100889.00
2023-10-10T15:13:59.869Z,100890.06
2023-10-10T15:16:28.748Z,100890.88
2023-10-10T15:18:56.570Z,100890.25
2023-10-10T15:21:35.403Z,100891.31
2023-10-10T15:24:08.554Z,100887.97
2023-10-10T15:26:38.752Z,100885.50
2023-10-10T15:29:06.525Z,100882.63
2023-10-10T15:31:35.308Z,100876.81
2023-10-10T15:34:03.981Z,100874.56
2023-10-10T15:36:37.283Z,100874.16
2023-10-10T15:39:07.661Z,100869.78
2023-10-10T15:41:38.607Z,100876.69
2023-10-10T15:44:09.154Z,100872.72
2023-10-10T15:46:41.302Z,100874.22
2023-10-10T15:49:29.617Z,100870.91
2023-10-10T15:52:05.089Z,100873.41
2023-10-10T15:54:35.267Z,100877.59
2023-10-10T15:57:09.638Z,100873.63
2023-10-10T15:59:42.939Z,100883.03
2023-10-10T16:02:14.640Z,100870.75
2023-10-10T16:04:44.105Z,100876.38
2023-10-10T16:07:12.867Z,100869.72
2023-10-10T16:09:40.788Z,100871.19
2023-10-10T16:12:13.699Z,100874.94
2023-10-10T16:14:41.929Z,100875.97
2023-10-10T16:17:16.675Z,100875.34
2023-10-10T16:19:44.978Z,100879.75
2023-10-10T16:22:14.549Z,100879.75
2023-10-10T16:24:42.356Z,100880.59
2023-10-10T16:27:11.904Z,100876.03
2023-10-10T16:29:39.646Z,100876.88
2023-10-10T16:32:11.215Z,100875.63
2023-10-10T16:34:44.206Z,100879.81
2023-10-10T16:39:46.088Z,100886.44
2023-10-10T16:42:16.340Z,100878.97
2023-10-10T16:44:47.509Z,100882.09
2023-10-10T16:47:18.190Z,100881.03
2023-10-10T16:49:46.715Z,100886.03
2023-10-10T16:52:14.344Z,100882.88
2023-10-10T16:54:47.184Z,100879.56
2023-10-10T16:57:16.361Z,100888.09
2023-10-10T16:59:44.362Z,100889.31
2023-10-10T17:02:13.112Z,100884.75
2023-10-10T17:04:43.440Z,100889.72
2023-10-10T17:07:12.411Z,100890.56
2023-10-10T17:09:41.282Z,100890.56
2023-10-10T17:12:09.590Z,100893.03
2023-10-10T17:14:41.476Z,100890.97
2023-10-10T17:17:09.729Z,100897.03
2023-10-10T17:19:38.709Z,100893.47
2023-10-10T17:22:08.835Z,100888.94
2023-10-10T17:24:36.507Z,100893.69
2023-10-10T17:27:10.080Z,100893.69
2023-10-10T17:29:42.454Z,100894.91
2023-10-10T17:32:10.516Z,100898.25
2023-10-10T17:34:41.680Z,100898.84
2023-10-10T17:37:12.469Z,100895.94
2023-10-10T17:39:40.146Z,100895.94
2023-10-10T17:42:08.798Z,100896.53
2023-10-10T17:44:39.035Z,100896.53
2023-10-10T17:47:09.069Z,100897.97
2023-10-10T17:49:37.240Z,100895.91
2023-10-10T17:52:05.318Z,100901.06
2023-10-10T17:54:33.011Z,100899.00
2023-10-10T17:57:00.770Z,100897.72
2023-10-10T17:59:28.519Z,100900.84
2023-10-10T18:01:56.196Z,100899.16
2023-10-10T18:04:27.310Z,100897.72
2023-10-10T18:06:55.377Z,100900.00
2023-10-10T18:09:23.531Z,100897.06
2023-10-10T18:11:51.372Z,100898.50
2023-10-10T18:14:21.753Z,100893.50
2023-10-10T18:16:50.803Z,100897.41
2023-10-10T18:19:22.346Z,100897.81
2023-10-10T18:21:53.917Z,100905.47
2023-10-10T18:24:28.216Z,100903.16
2023-10-10T18:26:56.384Z,100897.56
2023-10-10T18:29:24.279Z,100903.97
2023-10-10T18:31:52.837Z,100895.25
2023-10-10T18:34:20.784Z,100892.97
2023-10-10T18:36:48.435Z,100897.72
2023-10-10T18:39:20.310Z,100896.44
2023-10-10T18:41:48.181Z,100897.25
2023-10-10T18:44:17.198Z,100904.47
2023-10-10T18:46:47.468Z,100904.22
2023-10-10T18:49:16.332Z,100900.91
2023-10-10T18:51:44.493Z,100908.16
2023-10-10T18:54:14.895Z,100906.03
2023-10-10T18:56:43.961Z,100903.13
2023-10-10T18:59:12.527Z,100901.66
2023-10-10T19:01:45.403Z,100908.25
2023-10-10T19:04:15.312Z,100901.63
2023-10-10T19:06:43.748Z,100899.28
2023-10-10T19:09:12.513Z,100907.72
2023-10-10T19:11:40.776Z,100913.72
2023-10-10T19:14:11.678Z,100915.91
2023-10-10T19:16:39.828Z,100904.75
2023-10-10T19:19:08.702Z,100901.78
2023-10-10T19:21:36.929Z,100902.19
2023-10-10T19:24:05.035Z,100904.44
2023-10-10T19:26:34.941Z,100897.19
2023-10-10T19:29:04.968Z,100904.81
2023-10-10T19:31:40.761Z,100895.06
2023-10-10T19:34:11.098Z,100900.03
2023-10-10T19:36:39.523Z,100893.34
2023-10-10T19:39:11.039Z,100897.06
2023-10-10T19:41:39.781Z,100893.53
2023-10-10T19:44:07.839Z,100900.16
2023-10-10T19:46:41.841Z,100898.09
2023-10-10T19:49:09.652Z,100893.75
2023-10-10T19:51:41.846Z,100900.78
2023-10-10T19:54:14.049Z,100895.41
2023-10-10T19:56:43.485Z,100893.75
2023-10-10T19:59:11.157Z,100895.41
2023-10-10T20:01:40.343Z,100893.75
2023-10-10T20:04:08.705Z,100895.16
2023-10-10T20:06:36.593Z,100894.28
2023-10-10T20:09:11.273Z,100886.78
2023-10-10T20:11:41.165Z,100887.78
2023-10-10T20:14:08.846Z,100890.25
2023-10-10T20:16:36.805Z,100885.69
2023-10-10T20:19:06.038Z,100887.09
2023-10-10T20:21:33.752Z,100886.47
2023-10-10T20:24:01.587Z,100887.75
2023-10-10T20:26:29.308Z,100884.63
2023-10-10T20:28:56.990Z,100883.97
2023-10-10T20:31:24.862Z,100887.50
2023-10-10T20:33:52.978Z,100882.97
2023-10-10T20:36:24.796Z,100882.13
2023-10-10T20:38:54.716Z,100883.16
2023-10-10T20:41:22.977Z,100879.81
2023-10-10T20:43:50.887Z,100878.56
2023-10-10T20:46:22.341Z,100876.88
2023-10-10T20:48:54.934Z,100870.69
2023-10-10T20:51:28.301Z,100876.47
2023-10-10T20:53:56.794Z,100872.16
2023-10-10T20:56:24.536Z,100876.47
2023-10-10T20:58:52.859Z,100868.41
2023-10-10T21:01:22.531Z,100874.00
2023-10-10T21:03:51.774Z,100875.88
2023-10-10T21:06:19.559Z,100872.34
2023-10-10T21:08:52.006Z,100864.47
2023-10-10T21:11:22.675Z,100865.50
2023-10-10T21:13:50.429Z,100877.44
2023-10-10T21:16:18.171Z,100875.16
2023-10-10T21:18:47.165Z,100874.31
2023-10-10T21:21:15.638Z,100862.09
2023-10-10T21:23:44.278Z,100863.13
2023-10-10T21:26:16.124Z,100864.97
2023-10-10T21:28:44.229Z,100851.91
2023-10-10T21:31:12.642Z,100864.25
2023-10-10T21:33:41.709Z,100860.94
2023-10-10T21:36:10.312Z,100856.38
2023-10-10T21:38:38.073Z,100861.75
2023-10-10T21:41:06.563Z,100858.34
2023-10-10T21:43:35.614Z,100858.75
2023-10-10T21:46:06.322Z,100857.28
2023-10-10T21:48:34.140Z,100856.91
2023-10-10T21:51:03.761Z,100862.28
2023-10-10T21:53:34.061Z,100845.34
2023-10-10T21:56:01.773Z,100846.47
2023-10-10T21:58:29.685Z,100848.06
2023-10-10T22:00:59.714Z,100862.13
2023-10-10T22:03:28.718Z,100853.53
2023-10-10T22:05:56.820Z,100863.44
2023-10-10T22:08:26.990Z,100859.06
2023-10-10T22:10:57.757Z,100856.38
2023-10-10T22:13:26.947Z,100861.28
2023-10-10T22:15:54.617Z,100857.91
2023-10-10T22:18:23.809Z,100847.06
2023-10-10T22:20:51.584Z,100851.53
2023-10-10T22:23:19.347Z,100857.09
2023-10-10T22:25:47.036Z,100860.81
2023-10-10T22:28:14.708Z,100853.78
2023-10-10T22:30:42.421Z,100854.81
2023-10-10T22:33:11.470Z,100840.09
2023-10-10T22:35:41.157Z,100845.44
2023-10-10T22:38:13.999Z,100847.22
2023-10-10T22:40:41.929Z,100844.19
2023-10-10T22:43:15.021Z,100837.97
2023-10-10T22:45:45.219Z,100834.06
2023-10-10T22:48:15.619Z,100846.09
2023-10-10T22:50:46.747Z,100831.66
2023-10-10T22:53:17.104Z,100822.97
2023-10-10T22:55:45.411Z,100823.13
2023-10-10T22:58:16.177Z,100819.63
2023-10-10T23:00:43.876Z,100817.13
2023-10-10T23:03:12.275Z,100818.72
2023-10-10T23:05:43.212Z,100814.31
2023-10-10T23:08:14.160Z,100811.81
2023-10-10T23:10:44.347Z,100820.88
2023-10-10T23:13:14.300Z,100818.19
2023-10-10T23:15:42.264Z,100815.50
2023-10-10T23:18:12.090Z,100822.81
2023-10-10T23:20:42.491Z,100816.16
2023-10-10T23:23:12.006Z,100814.13
2023-10-10T23:25:41.178Z,100817.81
2023-10-10T23:28:09.541Z,100812.56
2023-10-10T23:30:40.199Z,100818.28
2023-10-10T23:33:11.807Z,100820.03
2023-10-10T23:35:40.466Z,100810.31
2023-10-10T23:38:08.756Z,100816.50
2023-10-10T23:40:45.358Z,100826.81
2023-10-10T23:43:19.617Z,100824.31
2023-10-10T23:45:49.876Z,100822.16
2023-10-10T23:48:18.361Z,100812.09
2023-10-10T23:50:47.154Z,100813.00
2023-10-10T23:53:15.953Z,100818.19
2023-10-10T23:55:47.901Z,100818.84
2023-10-10T23:58:17.769Z,100823.84
